地図

経路データ

SID SEASON NUMBER BASIN SUBBASIN NAME ISO_TIME NATURE LAT LON WMO_WIND WMO_PRES WMO_AGENCY TRACK_TYPE DIST2LAND LANDFALL IFLAG USA_AGENCY USA_ATCF_ID USA_LAT USA_LON USA_RECORD USA_STATUS USA_WIND USA_PRES USA_SSHS USA_R34_NE USA_R34_SE USA_R34_SW USA_R34_NW USA_R50_NE USA_R50_SE USA_R50_SW USA_R50_NW USA_R64_NE USA_R64_SE USA_R64_SW USA_R64_NW USA_POCI USA_ROCI USA_RMW USA_EYE TOKYO_LAT TOKYO_LON TOKYO_GRADE TOKYO_WIND TOKYO_PRES TOKYO_R50_DIR TOKYO_R50_LONG TOKYO_R50_SHORT TOKYO_R30_DIR TOKYO_R30_LONG TOKYO_R30_SHORT TOKYO_LAND CMA_LAT CMA_LON CMA_CAT CMA_WIND CMA_PRES HKO_LAT HKO_LON HKO_CAT HKO_WIND HKO_PRES NEWDELHI_LAT NEWDELHI_LON NEWDELHI_GRADE NEWDELHI_WIND NEWDELHI_PRES NEWDELHI_CI NEWDELHI_DP NEWDELHI_POCI REUNION_LAT REUNION_LON REUNION_TYPE REUNION_WIND REUNION_PRES REUNION_TNUM REUNION_CI REUNION_RMW REUNION_R34_NE REUNION_R34_SE REUNION_R34_SW REUNION_R34_NW REUNION_R50_NE REUNION_R50_SE REUNION_R50_SW REUNION_R50_NW REUNION_R64_NE REUNION_R64_SE REUNION_R64_SW REUNION_R64_NW BOM_LAT BOM_LON BOM_TYPE BOM_WIND BOM_PRES BOM_TNUM BOM_CI BOM_RMW BOM_R34_NE BOM_R34_SE BOM_R34_SW BOM_R34_NW BOM_R50_NE BOM_R50_SE BOM_R50_SW BOM_R50_NW BOM_R64_NE BOM_R64_SE BOM_R64_SW BOM_R64_NW BOM_ROCI BOM_POCI BOM_EYE BOM_POS_METHOD BOM_PRES_METHOD NADI_LAT NADI_LON NADI_CAT NADI_WIND NADI_PRES WELLINGTON_LAT WELLINGTON_LON WELLINGTON_WIND WELLINGTON_PRES DS824_LAT DS824_LON DS824_STAGE DS824_WIND DS824_PRES TD9636_LAT TD9636_LON TD9636_STAGE TD9636_WIND TD9636_PRES TD9635_LAT TD9635_LON TD9635_WIND TD9635_PRES TD9635_ROCI NEUMANN_LAT NEUMANN_LON NEUMANN_CLASS NEUMANN_WIND NEUMANN_PRES MLC_LAT MLC_LON MLC_CLASS MLC_WIND MLC_PRES USA_GUST BOM_GUST BOM_GUST_PER REUNION_GUST REUNION_GUST_PER USA_SEAHGT USA_SEARAD_NE USA_SEARAD_SE USA_SEARAD_SW USA_SEARAD_NW STORM_SPEED STORM_DIR
1968210N21150 1968 51 WP MM NOT_NAMED 1968-07-28 00:00:00 TS 21.0000 150.000 main 1838 1764 __O___________ -1 21.0000 150.000 0 1006 14 317
1968210N21150 1968 51 WP MM NOT_NAMED 1968-07-28 03:00:00 TS 21.5003 149.501 main 1764 1690 __P___________ -1 21.5003 149.501 0 1005 14 317
1968210N21150 1968 51 WP MM NOT_NAMED 1968-07-28 06:00:00 TS 22.0000 149.000 main 1690 1616 __O___________ -1 22.0000 149.000 0 1004 14 317
1968210N21150 1968 51 WP MM NOT_NAMED 1968-07-28 09:00:00 TS 22.4998 148.500 main 1616 1542 __P___________ -1 22.4998 148.500 0 1003 14 317
1968210N21150 1968 51 WP MM NOT_NAMED 1968-07-28 12:00:00 TS 23.0000 148.000 main 1542 1469 __O___________ -1 23.0000 148.000 0 1002 14 316
1968210N21150 1968 51 WP MM NOT_NAMED 1968-07-28 15:00:00 TS 23.5001 147.463 main 1469 1395 __P___________ -1 23.5001 147.463 0 1001 14 317
1968210N21150 1968 51 WP MM NOT_NAMED 1968-07-28 18:00:00 TS 24.0000 147.000 main 1395 1332 __O___________ -1 24.0000 147.000 0 1000 13 323
1968210N21150 1968 51 WP MM NOT_NAMED 1968-07-28 21:00:00 TS 24.4998 146.638 main 1327 1273 __P___________ -1 24.4998 146.638 0 999 11 336
1968210N21150 1968 51 WP MM NOT_NAMED 1968-07-29 00:00:00 TS 25.0000 146.500 main 1273 1229 __O___________ -1 25.0000 146.500 0 998 10 359
1968210N21150 1968 51 WP MM NOT_NAMED 1968-07-29 03:00:00 TS 25.5222 146.630 main 1229 1197 __P___________ -1 25.5222 146.630 0 998 11 24
1968210N21150 1968 51 WP MM NOT_NAMED 1968-07-29 06:00:00 TS 26.0000 147.000 main 1202 1190 __O___________ -1 26.0000 147.000 0 998 12 43
1968210N21150 1968 51 WP MM NOT_NAMED 1968-07-29 09:00:00 TS 26.3653 147.513 main 1191 1191 __P___________ -1 26.3653 147.513 0 998 12 55
1968210N21150 1968 51 WP MM NOT_NAMED 1968-07-29 12:00:00 TS 26.7000 148.100 main 1197 1188 __O___________ -1 26.7000 148.100 0 998 12 53
1968210N21150 1968 51 WP MM NOT_NAMED 1968-07-29 15:00:00 TS 27.1072 148.608 main 1192 1183 __P___________ -1 27.1072 148.608 0 998 12 48
1968210N21150 1968 51 WP MM NOT_NAMED 1968-07-29 18:00:00 TS 27.5000 149.100 main 1189 1186 __O___________ -1 27.5000 149.100 0 998 12 52
1968210N21150 1968 51 WP MM NOT_NAMED 1968-07-29 21:00:00 TS 27.8302 149.645 main 1198 1197 __P___________ -1 27.8302 149.645 0 998 11 56
1968210N21150 1968 51 WP MM NOT_NAMED 1968-07-30 00:00:00 TS 28.1000 150.100 main 1210 1208 __O___________ -1 28.1000 150.100 0 998 8 53
1968210N21150 1968 51 WP MM NOT_NAMED 1968-07-30 03:00:00 TS 28.2997 150.346 main 1208 1207 __P___________ -1 28.2997 150.346 0 997 5 41
1968210N21150 1968 51 WP MM NOT_NAMED 1968-07-30 06:00:00 TS 28.5000 150.500 main 1207 1198 __O___________ -1 28.5000 150.500 1 29 997 6 33
1968210N21150 1968 51 WP MM NOT_NAMED 1968-07-30 09:00:00 TS 28.8000 150.722 main 1198 1190 __P___________ -1 28.8000 150.722 1 29 996 7 30
1968210N21150 1968 51 WP MM NOT_NAMED 1968-07-30 12:00:00 TS 29.1000 150.900 main 1190 1176 __O___________ -1 29.1000 150.900 1 29 996 5 22
1968210N21150 1968 51 WP MM NOT_NAMED 1968-07-30 15:00:00 TS 29.3074 150.958 main 1183 1169 __P___________ -1 29.3074 150.958 1 29 996 4 12
1968210N21150 1968 51 WP MM NOT_NAMED 1968-07-30 18:00:00 TS 29.5000 151.000 main 1169 1162 __O___________ -1 29.5000 151.000 1 29 996 5 18
1968210N21150 1968 51 WP MM NOT_NAMED 1968-07-30 21:00:00 TS 29.7424 151.113 main 1163 1156 __P___________ -1 29.7424 151.113 1 29 996 6 28
1968210N21150 1968 51 WP MM NOT_NAMED 1968-07-31 00:00:00 TS 30.0000 151.300 main 1158 1151 __O___________ -1 30.0000 151.300 1 29 996 6 36
1968210N21150 1968 51 WP MM NOT_NAMED 1968-07-31 03:00:00 TS 30.2648 151.548 main 1154 1154 __P___________ -1 30.2648 151.548 1 29 996 7 46
1968210N21150 1968 51 WP MM NOT_NAMED 1968-07-31 06:00:00 TS 30.5000 151.900 main 1174 1174 __O___________ -1 30.5000 151.900 1 29 996 8 61
1968210N21150 1968 51 WP MM NOT_NAMED 1968-07-31 09:00:00 TS 30.6578 152.385 main 1203 1203 __P___________ -1 30.6578 152.385 1 29 996 9 71
1968210N21150 1968 51 WP MM NOT_NAMED 1968-07-31 12:00:00 TS 30.8000 152.900 main 1239 1239 __O___________ -1 30.8000 152.900 1 29 996 9 69
1968210N21150 1968 51 WP MM NOT_NAMED 1968-07-31 15:00:00 TS 30.9775 153.353 main 1270 1270 __P___________ -1 30.9775 153.353 1 997 8 60
1968210N21150 1968 51 WP MM NOT_NAMED 1968-07-31 18:00:00 TS 31.2000 153.700 main 1285 1285 __O___________ -1 31.2000 153.700 0 998 7 47
1968210N21150 1968 51 WP MM NOT_NAMED 1968-07-31 21:00:00 TS 31.4772 153.969 main 1296 1283 __P___________ -1 31.4772 153.969 0 998 7 23
1968210N21150 1968 51 WP MM NOT_NAMED 1968-08-01 00:00:00 TS 31.8000 154.000 main 1283 1252 __O___________ -1 31.8000 154.000 0 998 7 344
1968210N21150 1968 51 WP MM NOT_NAMED 1968-08-01 03:00:00 TS 32.1194 153.749 main 1244 1184 __P___________ -1 32.1194 153.749 0 1000 10 316
1968210N21150 1968 51 WP MM NOT_NAMED 1968-08-01 06:00:00 TS 32.5000 153.200 main 1184 1107 __O___________ -1 32.5000 153.200 0 1002 14 306
1968210N21150 1968 51 WP MM NOT_NAMED 1968-08-01 09:00:00 TS 32.9409 152.402 main 1098 998 __P___________ -1 32.9409 152.402 0 1002 17 305
1968210N21150 1968 51 WP MM NOT_NAMED 1968-08-01 12:00:00 TS 33.5000 151.500 main 998 915 __O___________ -1 33.5000 151.500 0 1002 19 312
1968210N21150 1968 51 WP MM NOT_NAMED 1968-08-01 15:00:00 TS 34.2074 150.710 main 906 826 __P___________ -1 34.2074 150.710 0 1002 19 320
1968210N21150 1968 51 WP MM NOT_NAMED 1968-08-01 18:00:00 TS 35.0000 150.000 main 826 __O___________ -1 35.0000 150.000 0 1002 20 324

デジタル台風データ・検索

IBTrACS Databaseについて

本データベースは、米国NOAAが公開する1842年以降の世界の熱帯低気圧のベストトラックデータアーカイブInternational Best Track Archive for Climate Stewardship (IBTrACS)を、ウェブで閲覧しやすい形式に変換したものです。

最終更新日:2021-12-03